Impacts TAF Board
For situational awareness. Not to be used for flight planning purposes.
IDs:

KEUG - Eugene/Mahlon Sweet, OR, US

Issued at 2327 UTC 05 Dec 2019
Updated at 0110 UTC 06 Dec 2019
Potential Impact None Slight Moderate High
Time0054Z 06/02Z 06/03Z 06/04Z 06/05Z 06/06Z 06/07Z 06/08Z 06/09Z 06/10Z 06/11Z 06/12Z 06/13Z 06/14Z>>
Type OBS PRVL PRVL PRVL PRVL PRVL PRVL PRVL PRVL PRVL PRVL PRVL PRVL PRVL
VIS 6 >6 >6 >6 >6 >6 >6 4 4 4 4 0.5 0.5 0.5
CIG -- 100 100 100 100 100 100 25 25 25 25 6 6 6
Cover SCT BKN BKN BKN BKN BKN BKN BKN BKN BKN BKN OVC OVC OVC
FltCat VFR VFR VFR VFR VFR VFR VFR MVFR MVFR MVFR MVFR LIFR LIFR LIFR
WX BR -- -- -- -- -- -- BR BR BR BR FG FG FG
WDir 320 VRB VRB VRB VRB VRB VRB VRB VRB VRB VRB VRB VRB VRB
WSpd 3 2 2 2 2 2 2 3 3 3 3 2 2 2
WGst -- -- -- -- -- -- -- -- -- -- -- -- -- --
Raw TAF
KEUG 052327Z 0600/0624 VRB02KT P6SM BKN100
  FM060800 VRB03KT 4SM BR SCT006 BKN025
  FM061200 VRB02KT 1/2SM FG BKN006 OVC012
  FM061900 03004KT 6SM BR VCSH BKN035 OVC050


Raw METAR
KEUG 060054Z 32003KT 6SM BR FEW080 SCT190 SCT250 05/03 A2998 RMK AO2 SLP156 T00500033
KEUG 052354Z 32003KT 9SM FEW080 SCT200 SCT250 07/05 A2998 RMK AO2 SLP156 T00670050 10094 20044 56010
KEUG 052254Z 35005KT 10SM FEW005 FEW080 SCT200 09/06 A2999 RMK AO2 SLP156 T00890056

METAR Board
Radar Display
Forecast Discussion
For situational awareness. Not to be used for flight planning purposes.